sensor_id;sensor_type;location;lat;lon;timestamp;pressure;altitude;pressure_sealevel;temperature;humidity
10510;BME280;5303;53.266;10.410;2023-03-19T00:01:07;100992.38;;;12.00;100.00
10510;BME280;5303;53.266;10.410;2023-03-19T00:03:33;100992.72;;;11.97;100.00
10510;BME280;5303;53.266;10.410;2023-03-19T00:05:59;100980.59;;;11.99;100.00
10510;BME280;5303;53.266;10.410;2023-03-19T00:08:25;100983.88;;;11.95;100.00
10510;BME280;5303;53.266;10.410;2023-03-19T00:10:51;100980.09;;;11.96;100.00
10510;BME280;5303;53.266;10.410;2023-03-19T00:13:17;100985.56;;;11.96;100.00
10510;BME280;5303;53.266;10.410;2023-03-19T00:15:42;100996.00;;;11.92;100.00
10510;BME280;5303;53.266;10.410;2023-03-19T00:18:07;100993.97;;;11.86;100.00
10510;BME280;5303;53.266;10.410;2023-03-19T00:20:33;100988.50;;;11.86;100.00
10510;BME280;5303;53.266;10.410;2023-03-19T00:22:59;100986.09;;;11.83;100.00
10510;BME280;5303;53.266;10.410;2023-03-19T00:25:24;100987.16;;;11.82;100.00
10510;BME280;5303;53.266;10.410;2023-03-19T00:27:50;100990.59;;;11.76;100.00
10510;BME280;5303;53.266;10.410;2023-03-19T00:30:17;100987.16;;;11.74;100.00
10510;BME280;5303;53.266;10.410;2023-03-19T00:32:42;100989.53;;;11.77;100.00
10510;BME280;5303;53.266;10.410;2023-03-19T00:35:08;100992.97;;;11.71;100.00
10510;BME280;5303;53.266;10.410;2023-03-19T00:37:34;100991.28;;;11.70;100.00
10510;BME280;5303;53.266;10.410;2023-03-19T00:39:59;101002.00;;;11.71;100.00
10510;BME280;5303;53.266;10.410;2023-03-19T00:42:25;100992.31;;;11.69;100.00
10510;BME280;5303;53.266;10.410;2023-03-19T00:44:51;100989.75;;;11.67;100.00
10510;BME280;5303;53.266;10.410;2023-03-19T00:47:16;100993.53;;;11.66;100.00
10510;BME280;5303;53.266;10.410;2023-03-19T00:49:42;100998.97;;;11.66;100.00
10510;BME280;5303;53.266;10.410;2023-03-19T00:52:07;100995.06;;;11.69;100.00
10510;BME280;5303;53.266;10.410;2023-03-19T00:54:34;100993.47;;;11.74;100.00
10510;BME280;5303;53.266;10.410;2023-03-19T00:56:59;100994.66;;;11.72;100.00
10510;BME280;5303;53.266;10.410;2023-03-19T00:59:25;100988.84;;;11.75;100.00
10510;BME280;5303;53.266;10.410;2023-03-19T01:01:50;100995.50;;;11.80;100.00
10510;BME280;5303;53.266;10.410;2023-03-19T01:04:16;100990.91;;;11.89;100.00
10510;BME280;5303;53.266;10.410;2023-03-19T01:06:42;100993.44;;;11.82;100.00
10510;BME280;5303;53.266;10.410;2023-03-19T01:09:08;100988.50;;;11.86;100.00
10510;BME280;5303;53.266;10.410;2023-03-19T01:11:33;100987.81;;;11.92;100.00
10510;BME280;5303;53.266;10.410;2023-03-19T01:13:58;100982.69;;;11.81;100.00
10510;BME280;5303;53.266;10.410;2023-03-19T01:16:24;100987.16;;;11.74;100.00
10510;BME280;5303;53.266;10.410;2023-03-19T01:18:49;100990.75;;;11.74;100.00
10510;BME280;5303;53.266;10.410;2023-03-19T01:21:15;100990.75;;;11.74;100.00
10510;BME280;5303;53.266;10.410;2023-03-19T01:23:40;100996.91;;;11.68;100.00
10510;BME280;5303;53.266;10.410;2023-03-19T01:26:05;100992.84;;;11.64;100.00
10510;BME280;5303;53.266;10.410;2023-03-19T01:28:31;100991.63;;;11.66;100.00
10510;BME280;5303;53.266;10.410;2023-03-19T01:31:00;100993.88;;;11.63;100.00
10510;BME280;5303;53.266;10.410;2023-03-19T01:33:26;100994.53;;;11.65;100.00
10510;BME280;5303;53.266;10.410;2023-03-19T01:35:51;100989.06;;;11.65;100.00
10510;BME280;5303;53.266;10.410;2023-03-19T01:38:16;100993.03;;;11.62;100.00
10510;BME280;5303;53.266;10.410;2023-03-19T01:40:46;100989.06;;;11.65;100.00
10510;BME280;5303;53.266;10.410;2023-03-19T01:43:20;100991.78;;;11.65;100.00
10510;BME280;5303;53.266;10.410;2023-03-19T01:45:49;100991.78;;;11.65;100.00
10510;BME280;5303;53.266;10.410;2023-03-19T01:48:19;100989.94;;;11.65;100.00
10510;BME280;5303;53.266;10.410;2023-03-19T01:50:48;100992.34;;;11.60;100.00
10510;BME280;5303;53.266;10.410;2023-03-19T01:53:20;100994.38;;;11.58;100.00
10510;BME280;5303;53.266;10.410;2023-03-19T01:55:47;100987.59;;;11.54;100.00
10510;BME280;5303;53.266;10.410;2023-03-19T01:58:12;100997.81;;;11.52;100.00
10510;BME280;5303;53.266;10.410;2023-03-19T02:00:38;100989.97;;;11.49;100.00
10510;BME280;5303;53.266;10.410;2023-03-19T02:03:04;100993.72;;;11.48;100.00
10510;BME280;5303;53.266;10.410;2023-03-19T02:05:30;100988.63;;;11.45;100.00
10510;BME280;5303;53.266;10.410;2023-03-19T02:07:59;100985.59;;;11.40;100.00
10510;BME280;5303;53.266;10.410;2023-03-19T02:10:28;100984.41;;;11.34;100.00
10510;BME280;5303;53.266;10.410;2023-03-19T02:12:54;100983.91;;;11.31;100.00
10510;BME280;5303;53.266;10.410;2023-03-19T02:15:19;100986.94;;;11.36;100.00
10510;BME280;5303;53.266;10.410;2023-03-19T02:17:45;100979.97;;;11.33;100.00
10510;BME280;5303;53.266;10.410;2023-03-19T02:20:16;100984.75;;;11.23;100.00
10510;BME280;5303;53.266;10.410;2023-03-19T02:22:47;100980.53;;;11.21;100.00
10510;BME280;5303;53.266;10.410;2023-03-19T02:28:17;100974.91;;;11.14;100.00
10510;BME280;5303;53.266;10.410;2023-03-19T02:30:44;100988.72;;;11.12;100.00
10510;BME280;5303;53.266;10.410;2023-03-19T02:33:12;100978.34;;;11.08;100.00
10510;BME280;5303;53.266;10.410;2023-03-19T02:35:39;100976.28;;;11.02;100.00
10510;BME280;5303;53.266;10.410;2023-03-19T02:38:05;100970.34;;;10.98;100.00
10510;BME280;5303;53.266;10.410;2023-03-19T02:40:35;100979.19;;;10.92;100.00
10510;BME280;5303;53.266;10.410;2023-03-19T02:43:02;100977.16;;;10.86;100.00
10510;BME280;5303;53.266;10.410;2023-03-19T02:45:29;100987.72;;;10.81;100.00
10510;BME280;5303;53.266;10.410;2023-03-19T02:47:55;100987.72;;;10.81;100.00
10510;BME280;5303;53.266;10.410;2023-03-19T02:53:42;100977.16;;;10.69;100.00
10510;BME280;5303;53.266;10.410;2023-03-19T02:56:08;100979.03;;;10.69;100.00
10510;BME280;5303;53.266;10.410;2023-03-19T02:58:33;100977.16;;;10.69;100.00
10510;BME280;5303;53.266;10.410;2023-03-19T03:00:58;100973.06;;;10.65;100.00
10510;BME280;5303;53.266;10.410;2023-03-19T03:03:24;100981.06;;;10.67;100.00
10510;BME280;5303;53.266;10.410;2023-03-19T03:05:49;100983.09;;;10.65;100.00
10510;BME280;5303;53.266;10.410;2023-03-19T03:08:14;100986.16;;;10.62;100.00
10510;BME280;5303;53.266;10.410;2023-03-19T03:10:40;100991.94;;;10.59;100.00
10510;BME280;5303;53.266;10.410;2023-03-19T03:13:05;100993.81;;;10.58;100.00
10510;BME280;5303;53.266;10.410;2023-03-19T03:15:31;100996.03;;;10.55;100.00
10510;BME280;5303;53.266;10.410;2023-03-19T03:17:56;101002.00;;;10.50;100.00
10510;BME280;5303;53.266;10.410;2023-03-19T03:20:22;100996.72;;;10.48;100.00
10510;BME280;5303;53.266;10.410;2023-03-19T03:22:48;100994.50;;;10.52;100.00
10510;BME280;5303;53.266;10.410;2023-03-19T03:25:14;100997.22;;;10.52;100.00
10510;BME280;5303;53.266;10.410;2023-03-19T03:27:39;100993.84;;;10.50;100.00
10510;BME280;5303;53.266;10.410;2023-03-19T03:30:07;100994.84;;;10.49;100.00
10510;BME280;5303;53.266;10.410;2023-03-19T03:32:33;100997.75;;;10.47;100.00
10510;BME280;5303;53.266;10.410;2023-03-19T03:34:59;100989.56;;;10.47;100.00
10510;BME280;5303;53.266;10.410;2023-03-19T03:37:25;100995.03;;;10.47;100.00
10510;BME280;5303;53.266;10.410;2023-03-19T03:39:50;100995.50;;;10.43;100.00
10510;BME280;5303;53.266;10.410;2023-03-19T03:42:17;100997.56;;;10.41;100.00
10510;BME280;5303;53.266;10.410;2023-03-19T03:44:42;100993.44;;;10.37;100.00
10510;BME280;5303;53.266;10.410;2023-03-19T03:47:08;100999.78;;;10.37;100.00
10510;BME280;5303;53.266;10.410;2023-03-19T03:49:33;100998.38;;;10.33;100.00
10510;BME280;5303;53.266;10.410;2023-03-19T03:51:58;100999.59;;;10.31;100.00
10510;BME280;5303;53.266;10.410;2023-03-19T03:54:23;101000.25;;;10.33;100.00
10510;BME280;5303;53.266;10.410;2023-03-19T03:56:49;101004.00;;;10.32;100.00
10510;BME280;5303;53.266;10.410;2023-03-19T03:59:15;101005.88;;;10.31;100.00
10510;BME280;5303;53.266;10.410;2023-03-19T04:01:40;100995.00;;;10.31;100.00
10510;BME280;5303;53.266;10.410;2023-03-19T04:04:05;100999.94;;;10.28;100.00
10510;BME280;5303;53.266;10.410;2023-03-19T04:06:31;100986.97;;;10.30;100.00
10510;BME280;5303;53.266;10.410;2023-03-19T04:08:56;100995.47;;;10.26;100.00
10510;BME280;5303;53.266;10.410;2023-03-19T04:11:21;101005.69;;;10.24;100.00
10510;BME280;5303;53.266;10.410;2023-03-19T04:13:47;100995.78;;;10.23;100.00
10510;BME280;5303;53.266;10.410;2023-03-19T04:16:12;101002.06;;;10.24;100.00
10510;BME280;5303;53.266;10.410;2023-03-19T04:18:39;100994.94;;;10.23;100.00
10510;BME280;5303;53.266;10.410;2023-03-19T04:21:05;100991.19;;;10.24;100.00
10510;BME280;5303;53.266;10.410;2023-03-19T04:23:31;100995.78;;;10.23;100.00
10510;BME280;5303;53.266;10.410;2023-03-19T04:26:02;100996.63;;;10.24;100.00
10510;BME280;5303;53.266;10.410;2023-03-19T04:28:28;101002.81;;;10.26;100.00
10510;BME280;5303;53.266;10.410;2023-03-19T04:31:04;100998.69;;;10.22;100.00
10510;BME280;5303;53.266;10.410;2023-03-19T04:33:31;100994.09;;;10.22;100.00
10510;BME280;5303;53.266;10.410;2023-03-19T04:35:56;100999.94;;;10.28;100.00
10510;BME280;5303;53.266;10.410;2023-03-19T04:38:22;100996.13;;;10.20;100.00
10510;BME280;5303;53.266;10.410;2023-03-19T04:40:50;100998.84;;;10.20;100.00
10510;BME280;5303;53.266;10.410;2023-03-19T04:43:16;100990.16;;;10.17;100.00
10510;BME280;5303;53.266;10.410;2023-03-19T04:45:41;100992.03;;;10.16;100.00
10510;BME280;5303;53.266;10.410;2023-03-19T04:48:07;100993.41;;;10.20;100.00
10510;BME280;5303;53.266;10.410;2023-03-19T04:50:32;100989.66;;;10.21;100.00
10510;BME280;5303;53.266;10.410;2023-03-19T04:52:58;100991.69;;;10.11;100.00
10510;BME280;5303;53.266;10.410;2023-03-19T04:55:24;100990.81;;;10.11;100.00
10510;BME280;5303;53.266;10.410;2023-03-19T04:57:49;100996.59;;;10.08;100.00
10510;BME280;5303;53.266;10.410;2023-03-19T05:00:15;101000.84;;;10.10;100.00
10510;BME280;5303;53.266;10.410;2023-03-19T05:02:42;101001.03;;;10.09;100.00
10510;BME280;5303;53.266;10.410;2023-03-19T05:05:10;101003.75;;;10.09;100.00
10510;BME280;5303;53.266;10.410;2023-03-19T05:07:38;101004.59;;;10.09;100.00
10510;BME280;5303;53.266;10.410;2023-03-19T05:10:03;101013.81;;;10.08;100.00
10510;BME280;5303;53.266;10.410;2023-03-19T05:12:29;101009.53;;;10.06;100.00
10510;BME280;5303;53.266;10.410;2023-03-19T05:14:54;101009.69;;;10.04;100.00
10510;BME280;5303;53.266;10.410;2023-03-19T05:17:20;101012.59;;;10.02;100.00
10510;BME280;5303;53.266;10.410;2023-03-19T05:19:45;101015.63;;;9.99;100.00
10510;BME280;5303;53.266;10.410;2023-03-19T05:22:11;101014.09;;;9.97;100.00
10510;BME280;5303;53.266;10.410;2023-03-19T05:24:36;101005.94;;;9.97;100.00
10510;BME280;5303;53.266;10.410;2023-03-19T05:27:02;101006.75;;;9.89;100.00
10510;BME280;5303;53.266;10.410;2023-03-19T05:29:27;101004.88;;;9.90;100.00
10510;BME280;5303;53.266;10.410;2023-03-19T05:31:53;101004.88;;;9.90;100.00
10510;BME280;5303;53.266;10.410;2023-03-19T05:34:18;101007.09;;;9.86;100.00
10510;BME280;5303;53.266;10.410;2023-03-19T05:36:44;101009.28;;;9.83;100.00
10510;BME280;5303;53.266;10.410;2023-03-19T05:39:09;101002.63;;;9.77;100.00
10510;BME280;5303;53.266;10.410;2023-03-19T05:41:34;101006.38;;;9.76;100.00
10510;BME280;5303;53.266;10.410;2023-03-19T05:44:01;101002.94;;;9.74;100.00
10510;BME280;5303;53.266;10.410;2023-03-19T05:46:26;101015.84;;;9.72;100.00
10510;BME280;5303;53.266;10.410;2023-03-19T05:48:52;101009.56;;;9.71;100.00
10510;BME280;5303;53.266;10.410;2023-03-19T05:51:17;101024.84;;;9.72;100.00
10510;BME280;5303;53.266;10.410;2023-03-19T05:53:42;101032.03;;;9.73;100.00
10510;BME280;5303;53.266;10.410;2023-03-19T05:56:07;101028.81;;;9.78;100.00
10510;BME280;5303;53.266;10.410;2023-03-19T05:58:33;101029.84;;;9.85;100.00
10510;BME280;5303;53.266;10.410;2023-03-19T06:00:58;101030.03;;;9.92;100.00
10510;BME280;5303;53.266;10.410;2023-03-19T06:03:23;101027.69;;;9.97;100.00
10510;BME280;5303;53.266;10.410;2023-03-19T06:05:51;101019.56;;;10.05;100.00
10510;BME280;5303;53.266;10.410;2023-03-19T06:08:17;101026.53;;;10.08;100.00
10510;BME280;5303;53.266;10.410;2023-03-19T06:10:42;101029.81;;;10.11;100.00
10510;BME280;5303;53.266;10.410;2023-03-19T06:13:08;101024.88;;;10.15;100.00
10510;BME280;5303;53.266;10.410;2023-03-19T06:15:33;101029.28;;;10.16;100.00
10510;BME280;5303;53.266;10.410;2023-03-19T06:17:58;101026.38;;;10.17;100.00
10510;BME280;5303;53.266;10.410;2023-03-19T06:20:23;101024.38;;;10.19;100.00
10510;BME280;5303;53.266;10.410;2023-03-19T06:22:49;101025.72;;;10.23;100.00
10510;BME280;5303;53.266;10.410;2023-03-19T06:25:15;101025.28;;;10.28;100.00
10510;BME280;5303;53.266;10.410;2023-03-19T06:27:40;101024.63;;;10.34;100.00
10510;BME280;5303;53.266;10.410;2023-03-19T06:30:06;101021.22;;;10.40;100.00
10510;BME280;5303;53.266;10.410;2023-03-19T06:32:31;101029.91;;;10.44;100.00
10510;BME280;5303;53.266;10.410;2023-03-19T06:34:57;101028.03;;;10.44;100.00
10510;BME280;5303;53.266;10.410;2023-03-19T06:37:22;101029.91;;;10.44;100.00
10510;BME280;5303;53.266;10.410;2023-03-19T06:39:47;101035.19;;;10.45;100.00
10510;BME280;5303;53.266;10.410;2023-03-19T06:42:13;101031.78;;;10.52;100.00
10510;BME280;5303;53.266;10.410;2023-03-19T06:44:38;101027.03;;;10.54;100.00
10510;BME280;5303;53.266;10.410;2023-03-19T06:47:04;101030.28;;;10.57;100.00
10510;BME280;5303;53.266;10.410;2023-03-19T06:49:29;101030.78;;;10.61;100.00
10510;BME280;5303;53.266;10.410;2023-03-19T06:51:54;101039.28;;;10.58;100.00
10510;BME280;5303;53.266;10.410;2023-03-19T06:54:20;101033.31;;;10.62;100.00
10510;BME280;5303;53.266;10.410;2023-03-19T06:56:45;101037.25;;;10.68;100.00
10510;BME280;5303;53.266;10.410;2023-03-19T06:59:11;101036.59;;;10.74;100.00
10510;BME280;5303;53.266;10.410;2023-03-19T07:01:39;101040.50;;;10.80;100.00
10510;BME280;5303;53.266;10.410;2023-03-19T07:04:04;101041.53;;;10.87;100.00
10510;BME280;5303;53.266;10.410;2023-03-19T07:06:29;101049.03;;;10.93;100.00
10510;BME280;5303;53.266;10.410;2023-03-19T07:08:55;101052.25;;;10.96;100.00
10510;BME280;5303;53.266;10.410;2023-03-19T07:11:20;101066.06;;;11.03;100.00
10510;BME280;5303;53.266;10.410;2023-03-19T07:13:45;101067.75;;;11.04;100.00
10510;BME280;5303;53.266;10.410;2023-03-19T07:16:11;101065.38;;;11.09;100.00
10510;BME280;5303;53.266;10.410;2023-03-19T07:18:36;101070.84;;;11.17;100.00
10510;BME280;5303;53.266;10.410;2023-03-19T07:21:02;101073.03;;;11.22;100.00
10510;BME280;5303;53.266;10.410;2023-03-19T07:23:27;101076.28;;;11.26;100.00
10510;BME280;5303;53.266;10.410;2023-03-19T07:25:52;101068.59;;;11.29;100.00
10510;BME280;5303;53.266;10.410;2023-03-19T07:28:18;101076.94;;;11.36;100.00
10510;BME280;5303;53.266;10.410;2023-03-19T07:30:43;101067.22;;;11.41;100.00
10510;BME280;5303;53.266;10.410;2023-03-19T07:33:09;101064.50;;;11.50;100.00
10510;BME280;5303;53.266;10.410;2023-03-19T07:35:34;101067.53;;;11.55;100.00
10510;BME280;5303;53.266;10.410;2023-03-19T07:38:00;101074.38;;;11.59;100.00
10510;BME280;5303;53.266;10.410;2023-03-19T07:40:27;101076.56;;;11.63;100.00
10510;BME280;5303;53.266;10.410;2023-03-19T07:42:52;101063.06;;;11.70;100.00
10510;BME280;5303;53.266;10.410;2023-03-19T07:45:18;101068.00;;;11.75;100.00
10510;BME280;5303;53.266;10.410;2023-03-19T07:47:43;101071.25;;;11.78;100.00
10510;BME280;5303;53.266;10.410;2023-03-19T07:50:08;101078.22;;;11.81;100.00
10510;BME280;5303;53.266;10.410;2023-03-19T07:52:34;101082.81;;;11.80;100.00
10510;BME280;5303;53.266;10.410;2023-03-19T07:55:00;101083.53;;;11.82;100.00
10510;BME280;5303;53.266;10.410;2023-03-19T07:57:25;101084.38;;;11.91;100.00
10510;BME280;5303;53.266;10.410;2023-03-19T07:59:51;101083.50;;;11.99;100.00
10510;BME280;5303;53.266;10.410;2023-03-19T08:02:17;101084.50;;;12.06;100.00
10510;BME280;5303;53.266;10.410;2023-03-19T08:04:43;101079.34;;;12.11;100.00
10510;BME280;5303;53.266;10.410;2023-03-19T08:07:08;101086.97;;;12.24;100.00
10510;BME280;5303;53.266;10.410;2023-03-19T08:09:37;101085.91;;;12.33;100.00
10510;BME280;5303;53.266;10.410;2023-03-19T08:12:04;101087.03;;;12.47;100.00
10510;BME280;5303;53.266;10.410;2023-03-19T08:14:31;101087.28;;;12.60;100.00
10510;BME280;5303;53.266;10.410;2023-03-19T08:16:56;101089.44;;;12.73;100.00
10510;BME280;5303;53.266;10.410;2023-03-19T08:19:21;101094.88;;;12.81;100.00
10510;BME280;5303;53.266;10.410;2023-03-19T08:21:47;101094.78;;;12.89;100.00
10510;BME280;5303;53.266;10.410;2023-03-19T08:24:12;101096.59;;;12.97;100.00
10510;BME280;5303;53.266;10.410;2023-03-19T08:26:37;101086.19;;;13.00;100.00
10510;BME280;5303;53.266;10.410;2023-03-19T08:29:03;101086.19;;;13.00;100.00
10510;BME280;5303;53.266;10.410;2023-03-19T08:31:28;101090.41;;;13.03;100.00
10510;BME280;5303;53.266;10.410;2023-03-19T08:33:54;101090.97;;;12.98;100.00
10510;BME280;5303;53.266;10.410;2023-03-19T08:36:20;101095.03;;;13.02;100.00
10510;BME280;5303;53.266;10.410;2023-03-19T08:38:45;101108.69;;;13.02;100.00
10510;BME280;5303;53.266;10.410;2023-03-19T08:41:11;101102.59;;;13.00;100.00
10510;BME280;5303;53.266;10.410;2023-03-19T08:43:36;101096.19;;;13.08;100.00
10510;BME280;5303;53.266;10.410;2023-03-19T08:46:03;101095.78;;;13.19;100.00
10510;BME280;5303;53.266;10.410;2023-03-19T08:48:29;101091.03;;;13.36;100.00
10510;BME280;5303;53.266;10.410;2023-03-19T08:50:56;101095.31;;;13.54;100.00
10510;BME280;5303;53.266;10.410;2023-03-19T08:53:22;101087.63;;;13.87;100.00
10510;BME280;5303;53.266;10.410;2023-03-19T08:55:52;101088.38;;;13.81;100.00
10510;BME280;5303;53.266;10.410;2023-03-19T08:58:18;101100.06;;;13.89;100.00
10510;BME280;5303;53.266;10.410;2023-03-19T09:00:44;101094.22;;;13.78;100.00
10510;BME280;5303;53.266;10.410;2023-03-19T09:03:09;101096.59;;;13.81;100.00
10510;BME280;5303;53.266;10.410;2023-03-19T09:05:34;101095.25;;;13.77;100.00
10510;BME280;5303;53.266;10.410;2023-03-19T09:08:00;101091.13;;;13.81;100.00
10510;BME280;5303;53.266;10.410;2023-03-19T09:10:25;101091.59;;;13.84;100.00
10510;BME280;5303;53.266;10.410;2023-03-19T09:12:51;101086.38;;;13.89;100.00
10510;BME280;5303;53.266;10.410;2023-03-19T09:15:16;101088.34;;;13.95;100.00
10510;BME280;5303;53.266;10.410;2023-03-19T09:17:41;101085.03;;;14.15;100.00
10510;BME280;5303;53.266;10.410;2023-03-19T09:20:07;101086.34;;;14.34;100.00
10510;BME280;5303;53.266;10.410;2023-03-19T09:22:33;101091.72;;;14.57;100.00
10510;BME280;5303;53.266;10.410;2023-03-19T09:24:58;101088.47;;;14.68;100.00
10510;BME280;5303;53.266;10.410;2023-03-19T09:27:23;101091.88;;;14.70;100.00
10510;BME280;5303;53.266;10.410;2023-03-19T09:29:49;101084.31;;;14.72;100.00
10510;BME280;5303;53.266;10.410;2023-03-19T09:32:14;101092.13;;;14.75;100.00
10510;BME280;5303;53.266;10.410;2023-03-19T09:34:39;101090.84;;;14.71;100.00
10510;BME280;5303;53.266;10.410;2023-03-19T09:37:05;101098.00;;;14.72;100.00
10510;BME280;5303;53.266;10.410;2023-03-19T09:39:30;101096.03;;;14.66;100.00
10510;BME280;5303;53.266;10.410;2023-03-19T09:44:40;101096.03;;;14.66;100.00
10510;BME280;5303;53.266;10.410;2023-03-19T09:47:28;101100.59;;;14.74;100.00
10510;BME280;5303;53.266;10.410;2023-03-19T09:49:57;101101.75;;;14.86;100.00
10510;BME280;5303;53.266;10.410;2023-03-19T09:52:48;101100.78;;;14.94;100.00
10510;BME280;5303;53.266;10.410;2023-03-19T09:57:43;101102.53;;;15.01;100.00
10510;BME280;5303;53.266;10.410;2023-03-19T10:00:33;101103.22;;;15.03;100.00
10510;BME280;5303;53.266;10.410;2023-03-19T10:03:14;101102.94;;;15.20;100.00
10510;BME280;5303;53.266;10.410;2023-03-19T10:08:40;101109.06;;;15.43;100.00
10510;BME280;5303;53.266;10.410;2023-03-19T10:16:49;101104.44;;;15.72;100.00
10510;BME280;5303;53.266;10.410;2023-03-19T10:19:21;101094.13;;;15.74;100.00
10510;BME280;5303;53.266;10.410;2023-03-19T10:21:55;101096.91;;;15.80;100.00
10510;BME280;5303;53.266;10.410;2023-03-19T10:24:37;101099.66;;;15.80;100.00
10510;BME280;5303;53.266;10.410;2023-03-19T10:27:21;101103.75;;;15.91;100.00
10510;BME280;5303;53.266;10.410;2023-03-19T10:29:47;101100.84;;;15.99;100.00
10510;BME280;5303;53.266;10.410;2023-03-19T10:32:18;101095.81;;;16.10;100.00
10510;BME280;5303;53.266;10.410;2023-03-19T10:34:46;101100.50;;;16.16;100.00
10510;BME280;5303;53.266;10.410;2023-03-19T10:37:25;101094.38;;;16.14;100.00
10510;BME280;5303;53.266;10.410;2023-03-19T10:39:54;101103.19;;;16.02;100.00
10510;BME280;5303;53.266;10.410;2023-03-19T10:45:27;101097.38;;;16.19;100.00
10510;BME280;5303;53.266;10.410;2023-03-19T10:47:58;101094.00;;;16.23;100.00
10510;BME280;5303;53.266;10.410;2023-03-19T10:50:46;101099.09;;;16.26;100.00
10510;BME280;5303;53.266;10.410;2023-03-19T10:58:39;101090.69;;;16.35;100.00
10510;BME280;5303;53.266;10.410;2023-03-19T11:01:07;101087.13;;;16.47;100.00
10510;BME280;5303;53.266;10.410;2023-03-19T11:03:50;101091.41;;;16.63;100.00
10510;BME280;5303;53.266;10.410;2023-03-19T11:06:24;101096.28;;;16.61;100.00
10510;BME280;5303;53.266;10.410;2023-03-19T11:11:32;101080.41;;;16.63;100.00
10510;BME280;5303;53.266;10.410;2023-03-19T11:14:06;101078.09;;;16.60;100.00
10510;BME280;5303;53.266;10.410;2023-03-19T11:16:48;101075.34;;;16.67;100.00
10510;BME280;5303;53.266;10.410;2023-03-19T11:19:29;101078.28;;;16.65;100.00
10510;BME280;5303;53.266;10.410;2023-03-19T11:24:32;101075.63;;;16.85;100.00
10510;BME280;5303;53.266;10.410;2023-03-19T11:26:58;101080.28;;;16.98;100.00
10510;BME280;5303;53.266;10.410;2023-03-19T11:29:26;101089.44;;;17.12;100.00
10510;BME280;5303;53.266;10.410;2023-03-19T11:32:01;101075.47;;;17.13;100.00
10510;BME280;5303;53.266;10.410;2023-03-19T11:34:42;101075.03;;;17.23;100.00
10510;BME280;5303;53.266;10.410;2023-03-19T11:40:26;101080.53;;;17.36;100.00
10510;BME280;5303;53.266;10.410;2023-03-19T11:51:04;101069.72;;;17.61;100.00
10510;BME280;5303;53.266;10.410;2023-03-19T11:53:43;101073.34;;;17.62;100.00
10510;BME280;5303;53.266;10.410;2023-03-19T11:56:23;101070.16;;;17.58;100.00
10510;BME280;5303;53.266;10.410;2023-03-19T12:02:15;101071.44;;;17.76;100.00
10510;BME280;5303;53.266;10.410;2023-03-19T12:10:06;101068.63;;;18.02;100.00
10510;BME280;5303;53.266;10.410;2023-03-19T12:12:59;101063.47;;;18.19;100.00
10510;BME280;5303;53.266;10.410;2023-03-19T12:15:36;101058.63;;;18.14;100.00
10510;BME280;5303;53.266;10.410;2023-03-19T12:20:40;101071.69;;;18.32;100.00
10510;BME280;5303;53.266;10.410;2023-03-19T12:29:16;101067.03;;;18.39;100.00
10510;BME280;5303;53.266;10.410;2023-03-19T12:31:54;101062.28;;;18.53;100.00
10510;BME280;5303;53.266;10.410;2023-03-19T12:34:30;101054.44;;;18.50;100.00
10510;BME280;5303;53.266;10.410;2023-03-19T12:37:14;101057.53;;;18.67;100.00
10510;BME280;5303;53.266;10.410;2023-03-19T12:39:47;101052.59;;;18.82;100.00
10510;BME280;5303;53.266;10.410;2023-03-19T12:42:18;101052.69;;;18.62;100.00
10510;BME280;5303;53.266;10.410;2023-03-19T12:44:49;101065.91;;;18.47;100.00
10510;BME280;5303;53.266;10.410;2023-03-19T12:47:25;101059.06;;;18.63;100.00
10510;BME280;5303;53.266;10.410;2023-03-19T12:50:06;101061.13;;;18.68;100.00
10510;BME280;5303;53.266;10.410;2023-03-19T12:52:37;101046.88;;;18.77;100.00
10510;BME280;5303;53.266;10.410;2023-03-19T12:55:11;101053.97;;;18.60;100.00
10510;BME280;5303;53.266;10.410;2023-03-19T12:57:50;101053.50;;;18.70;100.00
10510;BME280;5303;53.266;10.410;2023-03-19T13:03:17;101050.09;;;18.74;100.00
10510;BME280;5303;53.266;10.410;2023-03-19T13:05:58;101048.59;;;18.78;100.00
10510;BME280;5303;53.266;10.410;2023-03-19T13:08:47;101055.66;;;18.61;100.00
10510;BME280;5303;53.266;10.410;2023-03-19T13:14:17;101049.09;;;18.55;100.00
10510;BME280;5303;53.266;10.410;2023-03-19T13:19:29;101046.41;;;18.42;100.00
10510;BME280;5303;53.266;10.410;2023-03-19T13:22:00;101043.56;;;18.62;100.00
10510;BME280;5303;53.266;10.410;2023-03-19T13:24:36;101045.06;;;18.58;100.00
10510;BME280;5303;53.266;10.410;2023-03-19T13:27:05;101039.06;;;18.68;100.00
10510;BME280;5303;53.266;10.410;2023-03-19T13:29:32;101040.97;;;18.74;100.00
10510;BME280;5303;53.266;10.410;2023-03-19T13:32:08;101045.19;;;18.76;100.00
10510;BME280;5303;53.266;10.410;2023-03-19T13:34:46;101037.91;;;18.89;100.00
10510;BME280;5303;53.266;10.410;2023-03-19T13:37:17;101039.78;;;18.95;100.00
10510;BME280;5303;53.266;10.410;2023-03-19T13:39:46;101033.09;;;18.71;100.00
10510;BME280;5303;53.266;10.410;2023-03-19T13:44:51;101025.34;;;18.54;100.00
10510;BME280;5303;53.266;10.410;2023-03-19T14:03:19;101023.75;;;18.40;100.00
10510;BME280;5303;53.266;10.410;2023-03-19T14:05:47;101018.03;;;18.35;100.00
10510;BME280;5303;53.266;10.410;2023-03-19T14:08:21;101021.84;;;18.34;97.83
10510;BME280;5303;53.266;10.410;2023-03-19T14:10:53;101017.59;;;18.38;99.76
10510;BME280;5303;53.266;10.410;2023-03-19T14:13:46;101029.25;;;18.40;96.51